Terminal Aerodrome Forecast
Issued by NWS Cleveland, OH

Home | Current Version | Previous Version | Graphics & Text | Print | Product List | Glossary On
Versions: 1 2 3 4 5 6 7 8 9 10 11 12 13 14 15 16 17 18 19
583
FTUS41 KCLE 221201 RRA
TAFMFD
TAF
KMFD 221201Z 2212/2312 20007KT P6SM BKN009
     FM221400 22009KT P6SM BKN015
     FM221600 22009KT P6SM BKN025
     FM221800 24009KT 6SM -SHRA VCTS BKN050CB
      TEMPO 2219/2221 2SM -TSRA BKN040CB
     FM222300 31006KT P6SM BKN050
     FM230500 34007KT P6SM BKN015=

USA.gov is the U.S. government's official web portal to all federal, state and local government web resources and services.